Time;durP1;ratioP1;P1;durP2;ratioP2;P2;SDS_P1;SDS_P2;PMS_P1;PMS_P2;Temp;Humidity;BMP_temperature;BMP_pressure;BME280_temperature;BME280_humidity;BME280_pressure;Samples;Min_cycle;Max_cycle;Signal;HPM_P1;HPM_P2
2022/11/01 00:01:30;;;;;;;;;;;18.00;99.90;;;;;;7377709;19;109442;-94
2022/11/01 00:03:57;;;;;;;;;;;18.00;99.90;;;;;;7378788;19;107794;-94
2022/11/01 00:06:24;;;;;;;;;;;18.00;99.90;;;;;;7384475;19;108508;-94
2022/11/01 00:08:51;;;;;;;;;;;18.10;99.90;;;;;;7377433;19;108215;-94
2022/11/01 00:11:18;;;;;;;;;;;18.10;99.90;;;;;;7378299;19;108293;-95
2022/11/01 00:13:46;;;;;;;;;;;18.10;99.90;;;;;;7378881;19;110740;-93
2022/11/01 00:16:14;;;;;;;;;;;18.10;99.90;;;;;;7380613;19;107792;-92
2022/11/01 00:18:41;;;;;;;;;;;18.20;99.90;;;;;;7376551;19;108315;-95
2022/11/01 00:21:08;;;;;;;;;;;18.20;99.90;;;;;;7379790;19;108720;-94
2022/11/01 00:23:36;;;;;;;;;;;18.20;99.90;;;;;;7378009;19;108150;-95
2022/11/01 00:26:03;;;;;;;;;;;18.20;99.90;;;;;;7378416;19;108564;-95
2022/11/01 00:28:30;;;;;;;;;;;18.30;99.90;;;;;;7380676;19;108393;-94
2022/11/01 00:30:58;;;;;;;;;;;18.30;99.90;;;;;;7377640;19;108483;-95
2022/11/01 00:33:25;;;;;;;;;;;18.30;99.90;;;;;;7375530;19;110812;-95
2022/11/01 00:35:52;;;;;;;;;;;18.20;99.90;;;;;;7375117;19;107535;-95
2022/11/01 00:38:19;;;;;;;;;;;18.30;99.90;;;;;;7374280;19;108300;-94
2022/11/01 00:40:46;;;;;;;;;;;18.30;99.90;;;;;;7377286;19;108285;-96
2022/11/01 00:43:13;;;;;;;;;;;18.30;99.90;;;;;;7378986;19;107337;-94
2022/11/01 00:45:42;;;;;;;;;;;18.30;99.90;;;;;;7376143;19;108032;-92
2022/11/01 00:48:09;;;;;;;;;;;18.30;99.90;;;;;;7376130;19;109249;-95
2022/11/01 00:50:36;;;;;;;;;;;18.30;99.90;;;;;;7380502;19;107365;-94
2022/11/01 00:53:03;;;;;;;;;;;18.30;99.90;;;;;;7379098;19;108843;-94
2022/11/01 00:55:30;;;;;;;;;;;18.30;99.90;;;;;;7377387;19;107948;-95
2022/11/01 00:57:57;;;;;;;;;;;18.30;99.90;;;;;;7377134;19;107974;-94
2022/11/01 01:00:24;;;;;;;;;;;18.30;99.90;;;;;;7361119;19;109226;-93
2022/11/01 01:02:51;;;;;;;;;;;18.30;99.90;;;;;;7355358;19;107643;-93
2022/11/01 01:05:19;;;;;;;;;;;18.30;99.90;;;;;;7356234;19;109701;-94
2022/11/01 01:07:46;;;;;;;;;;;18.30;99.90;;;;;;7353900;19;109572;-92
2022/11/01 01:10:13;;;;;;;;;;;18.30;99.90;;;;;;7353730;19;108458;-94
2022/11/01 01:12:40;;;;;;;;;;;18.30;99.90;;;;;;7363865;19;108163;-93
2022/11/01 01:15:07;;;;;;;;;;;18.40;99.90;;;;;;7356678;19;108482;-94
2022/11/01 01:17:34;;;;;;;;;;;18.40;99.90;;;;;;7357311;19;109491;-95
2022/11/01 01:20:02;;;;;;;;;;;18.40;99.90;;;;;;7354555;19;110582;-92
2022/11/01 01:22:29;;;;;;;;;;;18.40;99.90;;;;;;7358177;19;108309;-94
2022/11/01 01:24:56;;;;;;;;;;;18.40;99.90;;;;;;7357138;19;108516;-94
2022/11/01 01:27:23;;;;;;;;;;;18.50;99.90;;;;;;7357071;19;109104;-92
2022/11/01 01:29:53;;;;;;;;;;;18.50;99.90;;;;;;7356707;19;108093;-92
2022/11/01 01:32:21;;;;;;;;;;;18.50;99.90;;;;;;7360555;19;109000;-93
2022/11/01 01:34:49;;;;;;;;;;;18.50;99.90;;;;;;7352925;19;108231;-93
2022/11/01 01:37:16;;;;;;;;;;;18.50;99.90;;;;;;7353579;19;109253;-93
2022/11/01 01:39:43;;;;;;;;;;;18.60;99.90;;;;;;7353555;19;108481;-93
2022/11/01 01:42:25;;;;;;;;;;;18.60;99.90;;;;;;7353774;19;108227;-95
2022/11/01 01:44:55;;;;;;;;;;;18.60;99.90;;;;;;7355453;19;109342;-94
2022/11/01 01:47:26;;;;;;;;;;;18.60;99.90;;;;;;7353805;19;109440;-95
2022/11/01 01:49:57;;;;;;;;;;;18.60;99.90;;;;;;7353781;19;108554;-94
2022/11/01 01:52:25;;;;;;;;;;;18.60;99.90;;;;;;7354517;19;109775;-94
2022/11/01 01:54:52;;;;;;;;;;;18.60;99.90;;;;;;7361816;19;109275;-94
2022/11/01 01:57:19;;;;;;;;;;;18.60;99.90;;;;;;7353669;19;110309;-94
2022/11/01 01:59:47;;;;;;;;;;;18.70;99.90;;;;;;7354400;19;110030;-93
2022/11/01 02:02:14;;;;;;;;;;;18.70;99.90;;;;;;7352242;19;108050;-93
2022/11/01 02:04:54;;;;;;;;;;;18.70;99.90;;;;;;7349219;19;118576;-95
2022/11/01 02:07:23;;;;;;;;;;;18.70;99.90;;;;;;7353384;19;110044;-95
2022/11/01 02:09:50;;;;;;;;;;;18.70;99.90;;;;;;7350305;19;108314;-94
2022/11/01 02:12:17;;;;;;;;;;;18.70;99.90;;;;;;7353473;19;108500;-96
2022/11/01 02:14:44;;;;;;;;;;;18.70;99.90;;;;;;7353092;19;111591;-94
2022/11/01 02:17:28;;;;;;;;;;;18.80;99.90;;;;;;7358969;19;108346;-94
2022/11/01 02:20:03;;;;;;;;;;;18.70;99.90;;;;;;7352270;19;111143;-95
2022/11/01 02:22:30;;;;;;;;;;;18.70;99.90;;;;;;7351855;19;108469;-93
2022/11/01 02:25:15;;;;;;;;;;;18.60;99.90;;;;;;7352729;19;110936;-95
2022/11/01 02:28:01;;;;;;;;;;;18.60;99.90;;;;;;7352983;19;109027;-93
2022/11/01 02:30:54;;;;;;;;;;;18.50;99.90;;;;;;7351659;19;108306;-94
2022/11/01 02:33:27;;;;;;;;;;;18.50;99.90;;;;;;7350387;19;107963;-93
2022/11/01 02:35:58;;;;;;;;;;;18.50;99.90;;;;;;7351643;19;108713;-94
2022/11/01 02:38:49;;;;;;;;;;;18.60;99.90;;;;;;7349955;19;108497;-94
2022/11/01 02:41:30;;;;;;;;;;;18.50;99.90;;;;;;7354915;19;108374;-96
2022/11/01 02:44:01;;;;;;;;;;;18.50;99.90;;;;;;7352825;19;108148;-93
2022/11/01 02:49:17;;;;;;;;;;;18.60;99.90;;;;;;7358027;19;109348;-95
2022/11/01 02:51:45;;;;;;;;;;;18.40;99.90;;;;;;7359737;19;108573;-94
2022/11/01 02:54:18;;;;;;;;;;;18.40;99.90;;;;;;7357382;19;107934;-93
2022/11/01 02:56:45;;;;;;;;;;;18.40;99.90;;;;;;7356994;19;110691;-95
2022/11/01 02:59:21;;;;;;;;;;;18.30;99.90;;;;;;7358829;19;108302;-95
2022/11/01 03:01:52;;;;;;;;;;;18.20;99.90;;;;;;7356256;19;107909;-94
2022/11/01 03:04:19;;;;;;;;;;;18.10;99.90;;;;;;7362178;19;109283;-94
2022/11/01 03:06:49;;;;;;;;;;;18.10;99.90;;;;;;7358011;19;110713;-93
2022/11/01 03:09:16;;;;;;;;;;;18.00;99.90;;;;;;7353780;19;109728;-94
2022/11/01 03:11:55;;;;;;;;;;;17.90;99.90;;;;;;7355808;19;108380;-93
2022/11/01 03:14:25;;;;;;;;;;;17.90;99.90;;;;;;7355674;19;108329;-94
2022/11/01 03:17:01;;;;;;;;;;;17.70;99.90;;;;;;7356007;19;109408;-94
2022/11/01 03:19:28;;;;;;;;;;;17.60;99.90;;;;;;7358419;19;108493;-94
2022/11/01 03:22:02;;;;;;;;;;;17.60;99.90;;;;;;7360346;19;108487;-94
2022/11/01 03:24:35;;;;;;;;;;;17.60;99.90;;;;;;7358044;19;109673;-95
2022/11/01 03:27:11;;;;;;;;;;;17.60;99.90;;;;;;7361760;19;108037;-94
2022/11/01 03:29:39;;;;;;;;;;;17.50;99.90;;;;;;7354343;19;109182;-95
2022/11/01 03:32:07;;;;;;;;;;;17.40;99.90;;;;;;7356052;19;107947;-94
2022/11/01 03:34:36;;;;;;;;;;;17.40;99.90;;;;;;7354210;19;109280;-95
2022/11/01 03:37:05;;;;;;;;;;;17.30;99.90;;;;;;7355840;19;111575;-93
2022/11/01 03:39:43;;;;;;;;;;;17.20;99.90;;;;;;7354250;19;111110;-95
2022/11/01 03:42:13;;;;;;;;;;;17.10;99.90;;;;;;7357527;19;109229;-95
2022/11/01 03:44:42;;;;;;;;;;;17.10;99.90;;;;;;7354327;19;109287;-96
2022/11/01 03:47:09;;;;;;;;;;;17.10;99.90;;;;;;7364288;19;108289;-94
2022/11/01 03:49:36;;;;;;;;;;;17.00;99.90;;;;;;7355139;19;112508;-93
2022/11/01 03:52:03;;;;;;;;;;;17.00;99.90;;;;;;7357241;19;108300;-94
2022/11/01 03:54:30;;;;;;;;;;;17.00;99.90;;;;;;7352259;19;108783;-94
2022/11/01 03:56:57;;;;;;;;;;;16.90;99.90;;;;;;7356821;19;109046;-95
2022/11/01 03:59:24;;;;;;;;;;;16.90;99.90;;;;;;7355919;19;109086;-94
2022/11/01 04:01:51;;;;;;;;;;;16.80;99.90;;;;;;7357785;19;108497;-93
2022/11/01 04:04:18;;;;;;;;;;;16.80;99.90;;;;;;7354971;19;111378;-95
2022/11/01 04:06:45;;;;;;;;;;;16.80;99.90;;;;;;7358957;19;108585;-96
2022/11/01 04:09:12;;;;;;;;;;;16.70;99.90;;;;;;7361748;19;109154;-96
2022/11/01 04:11:39;;;;;;;;;;;16.70;99.90;;;;;;7353823;19;108366;-95
2022/11/01 04:22:23;;;;;;;;;;;16.50;99.90;;;;;;7356300;19;110643;-93
2022/11/01 04:24:50;;;;;;;;;;;16.60;99.90;;;;;;7357070;19;109152;-94
2022/11/01 04:27:17;;;;;;;;;;;16.50;99.90;;;;;;7355767;19;108022;-95
2022/11/01 04:29:44;;;;;;;;;;;16.50;99.90;;;;;;7354205;19;107867;-93
2022/11/01 04:32:11;;;;;;;;;;;16.50;99.90;;;;;;7361446;19;109528;-94
2022/11/01 04:34:41;;;;;;;;;;;16.50;99.90;;;;;;7353811;19;110317;-95
2022/11/01 04:37:09;;;;;;;;;;;16.40;99.90;;;;;;7356032;19;112652;-94
2022/11/01 04:39:36;;;;;;;;;;;16.50;99.90;;;;;;7353507;19;108881;-94
2022/11/01 04:42:03;;;;;;;;;;;16.50;99.90;;;;;;7357424;19;110495;-94
2022/11/01 04:44:30;;;;;;;;;;;16.40;99.90;;;;;;7355615;19;110308;-94
2022/11/01 04:46:57;;;;;;;;;;;16.40;99.90;;;;;;7355534;19;108475;-93
2022/11/01 04:49:23;;;;;;;;;;;16.50;99.90;;;;;;7356854;19;111335;-94
2022/11/01 04:51:51;;;;;;;;;;;16.50;99.90;;;;;;7353773;19;112077;-93
2022/11/01 04:54:18;;;;;;;;;;;16.60;99.90;;;;;;7358905;19;108482;-95
2022/11/01 04:56:45;;;;;;;;;;;16.50;99.90;;;;;;7355379;19;109187;-94
2022/11/01 04:59:12;;;;;;;;;;;16.40;99.90;;;;;;7356419;19;108015;-95
2022/11/01 05:01:38;;;;;;;;;;;16.40;99.90;;;;;;7353902;19;108101;-93
2022/11/01 05:04:06;;;;;;;;;;;16.30;99.90;;;;;;7352384;19;110471;-94
2022/11/01 05:06:33;;;;;;;;;;;16.20;99.90;;;;;;7354845;19;107969;-94
2022/11/01 05:09:00;;;;;;;;;;;16.20;99.90;;;;;;7354333;19;108695;-92
2022/11/01 05:11:29;;;;;;;;;;;16.10;99.90;;;;;;7351938;19;110419;-95
2022/11/01 05:13:56;;;;;;;;;;;16.10;99.90;;;;;;7354182;19;108750;-92
2022/11/01 05:16:23;;;;;;;;;;;16.00;99.90;;;;;;7359399;19;109203;-94
2022/11/01 05:18:50;;;;;;;;;;;15.90;99.90;;;;;;7354609;19;108480;-93
2022/11/01 05:21:17;;;;;;;;;;;15.90;99.90;;;;;;7354840;19;112074;-94
2022/11/01 05:23:46;;;;;;;;;;;15.80;99.90;;;;;;7356586;19;110651;-94
2022/11/01 05:26:13;;;;;;;;;;;15.80;99.90;;;;;;7357496;19;108027;-94
2022/11/01 05:28:40;;;;;;;;;;;15.80;99.90;;;;;;7351920;19;108550;-95
2022/11/01 05:31:07;;;;;;;;;;;15.80;99.90;;;;;;7356855;19;110599;-94
2022/11/01 05:33:34;;;;;;;;;;;15.70;99.90;;;;;;7351848;19;108517;-94
2022/11/01 05:36:01;;;;;;;;;;;15.70;99.90;;;;;;7357609;19;108596;-94
2022/11/01 05:38:28;;;;;;;;;;;15.70;99.90;;;;;;7358896;19;112257;-93
2022/11/01 05:40:55;;;;;;;;;;;15.60;99.90;;;;;;7356147;19;108390;-95
2022/11/01 05:43:22;;;;;;;;;;;15.60;99.90;;;;;;7357141;19;108925;-95
2022/11/01 05:45:50;;;;;;;;;;;15.60;99.90;;;;;;7356778;19;108018;-95
2022/11/01 05:48:17;;;;;;;;;;;15.60;99.90;;;;;;7356182;19;108983;-93
2022/11/01 05:50:45;;;;;;;;;;;15.60;99.90;;;;;;7352252;19;109580;-93
2022/11/01 05:53:13;;;;;;;;;;;15.60;99.90;;;;;;7352369;19;108800;-93
2022/11/01 05:55:40;;;;;;;;;;;15.60;99.90;;;;;;7348843;19;108150;-94
2022/11/01 05:58:07;;;;;;;;;;;15.50;99.90;;;;;;7352884;19;110431;-92
2022/11/01 06:00:35;;;;;;;;;;;15.50;99.90;;;;;;7345351;19;108947;-92
2022/11/01 06:03:02;;;;;;;;;;;15.50;99.90;;;;;;7348153;19;110616;-93
2022/11/01 06:05:30;;;;;;;;;;;15.40;99.90;;;;;;7347435;19;108621;-92
2022/11/01 06:07:59;;;;;;;;;;;15.40;99.90;;;;;;7349005;19;109212;-90
2022/11/01 06:10:25;;;;;;;;;;;15.40;99.90;;;;;;7345041;19;110691;-94
2022/11/01 06:12:53;;;;;;;;;;;15.40;99.90;;;;;;7348588;19;109178;-92
2022/11/01 06:15:20;;;;;;;;;;;15.30;99.90;;;;;;7346571;19;108244;-93
2022/11/01 06:17:47;;;;;;;;;;;15.20;99.90;;;;;;7346538;19;109394;-93
2022/11/01 06:20:14;;;;;;;;;;;15.20;99.90;;;;;;7350639;19;109131;-93
2022/11/01 06:22:41;;;;;;;;;;;15.20;99.90;;;;;;7351346;19;111500;-92
2022/11/01 06:25:08;;;;;;;;;;;15.10;99.90;;;;;;7352742;19;108828;-93
2022/11/01 06:27:35;;;;;;;;;;;15.10;99.90;;;;;;7355457;19;109196;-92
2022/11/01 06:30:02;;;;;;;;;;;15.10;99.90;;;;;;7354393;19;110766;-91
2022/11/01 06:32:29;;;;;;;;;;;15.10;99.90;;;;;;7355508;19;108466;-90
2022/11/01 06:34:56;;;;;;;;;;;15.00;99.90;;;;;;7353801;19;108173;-92
2022/11/01 06:37:22;;;;;;;;;;;15.00;99.90;;;;;;7355516;19;110211;-92
2022/11/01 06:39:49;;;;;;;;;;;15.00;99.90;;;;;;7355645;19;108824;-92
2022/11/01 06:42:16;;;;;;;;;;;14.90;99.90;;;;;;7357620;19;109537;-94
2022/11/01 06:44:44;;;;;;;;;;;14.80;99.90;;;;;;7352483;19;109098;-93
2022/11/01 06:47:11;;;;;;;;;;;14.80;99.90;;;;;;7351095;19;110480;-92
2022/11/01 06:49:38;;;;;;;;;;;14.80;99.90;;;;;;7351490;19;109545;-90
2022/11/01 06:52:05;;;;;;;;;;;14.70;99.90;;;;;;7350874;19;108334;-92
2022/11/01 06:54:32;;;;;;;;;;;14.70;99.90;;;;;;7352295;19;109186;-92
2022/11/01 06:56:59;;;;;;;;;;;14.60;99.90;;;;;;7353900;19;110113;-92
2022/11/01 06:59:26;;;;;;;;;;;14.60;99.90;;;;;;7352387;19;108269;-94
2022/11/01 07:01:53;;;;;;;;;;;14.50;99.90;;;;;;7355585;19;108373;-95
2022/11/01 07:04:21;;;;;;;;;;;14.50;99.90;;;;;;7355071;19;113529;-93
2022/11/01 07:06:48;;;;;;;;;;;14.50;99.90;;;;;;7351085;19;109772;-91
2022/11/01 07:09:15;;;;;;;;;;;14.50;99.90;;;;;;7351399;19;113082;-92
2022/11/01 07:11:42;;;;;;;;;;;14.50;99.90;;;;;;7351526;19;108424;-93
2022/11/01 07:14:09;;;;;;;;;;;14.40;99.90;;;;;;7353092;19;108512;-93
2022/11/01 07:16:37;;;;;;;;;;;14.50;99.90;;;;;;7351900;19;109418;-90
2022/11/01 07:19:04;;;;;;;;;;;14.50;99.90;;;;;;7352471;19;108650;-92
2022/11/01 07:21:31;;;;;;;;;;;14.50;99.90;;;;;;7353636;19;109498;-92
2022/11/01 07:23:58;;;;;;;;;;;14.50;99.90;;;;;;7350481;19;112727;-93
2022/11/01 07:26:25;;;;;;;;;;;14.50;99.90;;;;;;7357530;19;108481;-92
2022/11/01 07:28:52;;;;;;;;;;;14.50;99.90;;;;;;7353126;19;110418;-91
2022/11/01 07:31:19;;;;;;;;;;;14.50;99.90;;;;;;7347599;19;109609;-93
2022/11/01 07:33:46;;;;;;;;;;;14.50;99.90;;;;;;7349969;19;108810;-92
2022/11/01 07:36:13;;;;;;;;;;;14.50;99.90;;;;;;7352213;19;113926;-92
2022/11/01 07:38:40;;;;;;;;;;;14.50;99.90;;;;;;7350263;19;108949;-91
2022/11/01 07:41:08;;;;;;;;;;;14.50;99.90;;;;;;7351171;19;109135;-90
2022/11/01 07:43:35;;;;;;;;;;;14.50;99.90;;;;;;7352340;19;110439;-92
2022/11/01 07:46:04;;;;;;;;;;;14.50;99.90;;;;;;7351728;19;110304;-93
2022/11/01 07:48:31;;;;;;;;;;;14.50;99.90;;;;;;7358957;19;109201;-93
2022/11/01 07:50:58;;;;;;;;;;;14.50;99.90;;;;;;7350683;19;108342;-92
2022/11/01 07:53:25;;;;;;;;;;;14.60;99.90;;;;;;7350905;19;109306;-94
2022/11/01 07:55:53;;;;;;;;;;;14.50;99.90;;;;;;7351249;19;108600;-91
2022/11/01 07:58:20;;;;;;;;;;;14.60;99.90;;;;;;7354109;19;108376;-93
2022/11/01 08:00:47;;;;;;;;;;;14.60;99.90;;;;;;7352878;19;109562;-92
2022/11/01 08:03:15;;;;;;;;;;;14.70;99.90;;;;;;7350703;19;110545;-93
2022/11/01 08:05:42;;;;;;;;;;;14.70;99.90;;;;;;7348609;19;108500;-93
2022/11/01 08:08:09;;;;;;;;;;;14.70;99.90;;;;;;7355728;19;111212;-92
2022/11/01 08:10:37;;;;;;;;;;;14.80;99.90;;;;;;7350927;19;108521;-91
2022/11/01 08:13:05;;;;;;;;;;;14.70;99.90;;;;;;7349062;19;109298;-90
2022/11/01 08:15:32;;;;;;;;;;;14.70;99.90;;;;;;7348353;19;110394;-91
2022/11/01 08:17:59;;;;;;;;;;;14.80;99.90;;;;;;7350800;19;108413;-91
2022/11/01 08:20:27;;;;;;;;;;;14.80;99.90;;;;;;7348574;19;111845;-92
2022/11/01 08:22:54;;;;;;;;;;;14.80;99.90;;;;;;7347789;19;113180;-90
2022/11/01 08:25:21;;;;;;;;;;;14.90;99.90;;;;;;7349507;19;108993;-89
2022/11/01 08:27:48;;;;;;;;;;;14.90;99.90;;;;;;7349445;19;109254;-91
2022/11/01 08:30:17;;;;;;;;;;;14.90;99.90;;;;;;7353425;19;108845;-91
2022/11/01 08:32:44;;;;;;;;;;;15.00;99.90;;;;;;7347302;19;108943;-89
2022/11/01 08:35:11;;;;;;;;;;;15.00;99.90;;;;;;7347252;19;111470;-92
2022/11/01 08:37:49;;;;;;;;;;;15.00;99.90;;;;;;7346866;19;108824;-90
2022/11/01 08:40:16;;;;;;;;;;;15.00;99.90;;;;;;7347976;19;109304;-90
2022/11/01 08:42:43;;;;;;;;;;;15.00;99.90;;;;;;7348294;19;110387;-89
2022/11/01 08:45:10;;;;;;;;;;;15.10;99.90;;;;;;7348447;19;108395;-91
2022/11/01 08:47:41;;;;;;;;;;;15.20;99.90;;;;;;7346973;19;109773;-91
2022/11/01 08:50:09;;;;;;;;;;;15.20;99.90;;;;;;7345054;19;110245;-90
2022/11/01 08:52:37;;;;;;;;;;;15.30;99.90;;;;;;7356019;19;108867;-91
2022/11/01 08:55:04;;;;;;;;;;;15.30;99.90;;;;;;7348936;19;110290;-91
2022/11/01 08:57:31;;;;;;;;;;;15.30;99.90;;;;;;7348315;19;108456;-91
2022/11/01 08:59:58;;;;;;;;;;;15.30;99.90;;;;;;7348829;19;111865;-90
2022/11/01 09:02:25;;;;;;;;;;;15.40;99.90;;;;;;7347268;19;110642;-92
2022/11/01 09:04:52;;;;;;;;;;;15.40;99.90;;;;;;7350015;19;109295;-91
2022/11/01 09:07:19;;;;;;;;;;;15.50;99.90;;;;;;7344862;19;108983;-85
2022/11/01 09:09:46;;;;;;;;;;;15.60;99.90;;;;;;7339738;19;110009;-86
2022/11/01 09:12:13;;;;;;;;;;;15.60;99.90;;;;;;7341550;19;108854;-89
2022/11/01 09:14:40;;;;;;;;;;;15.60;99.90;;;;;;7347822;19;109213;-87
2022/11/01 09:17:07;;;;;;;;;;;15.70;99.90;;;;;;7341089;19;109288;-88
2022/11/01 09:19:34;;;;;;;;;;;15.70;99.90;;;;;;7340524;19;109576;-85
2022/11/01 09:22:01;;;;;;;;;;;15.80;99.90;;;;;;7346011;19;109732;-92
2022/11/01 09:24:28;;;;;;;;;;;15.90;99.90;;;;;;7349398;19;108086;-92
2022/11/01 09:26:55;;;;;;;;;;;15.90;99.90;;;;;;7348744;19;109366;-89
2022/11/01 09:29:22;;;;;;;;;;;15.90;99.90;;;;;;7348935;19;111640;-91
2022/11/01 09:31:50;;;;;;;;;;;16.00;99.90;;;;;;7346699;19;108530;-91
2022/11/01 09:34:17;;;;;;;;;;;16.00;99.90;;;;;;7348285;19;108383;-91
2022/11/01 09:36:44;;;;;;;;;;;16.10;99.90;;;;;;7356382;19;112711;-92
2022/11/01 09:39:15;;;;;;;;;;;16.10;99.90;;;;;;7347976;19;109231;-92
2022/11/01 09:41:48;;;;;;;;;;;16.20;99.90;;;;;;7347847;19;110566;-90
2022/11/01 09:44:26;;;;;;;;;;;16.20;99.90;;;;;;7353001;19;108276;-90
2022/11/01 09:46:59;;;;;;;;;;;16.20;99.90;;;;;;7350207;19;108113;-92
2022/11/01 09:49:32;;;;;;;;;;;16.30;99.90;;;;;;7351018;19;108804;-91
2022/11/01 09:51:59;;;;;;;;;;;16.40;99.90;;;;;;7348560;19;108318;-91
2022/11/01 09:54:26;;;;;;;;;;;16.40;99.90;;;;;;7350011;19;108914;-91
2022/11/01 09:56:56;;;;;;;;;;;16.50;99.90;;;;;;7348997;19;112807;-93
2022/11/01 09:59:26;;;;;;;;;;;16.60;99.90;;;;;;7356692;19;108304;-92
2022/11/01 10:01:53;;;;;;;;;;;16.60;99.90;;;;;;7349981;19;112953;-92
2022/11/01 10:04:39;;;;;;;;;;;16.60;99.90;;;;;;7351698;19;108614;-90
2022/11/01 10:07:19;;;;;;;;;;;16.70;99.90;;;;;;7365251;19;109595;-92
2022/11/01 10:09:55;;;;;;;;;;;16.70;99.90;;;;;;7373963;19;109253;-91
2022/11/01 10:12:41;;;;;;;;;;;16.80;99.90;;;;;;7371709;19;108227;-92
2022/11/01 10:15:10;;;;;;;;;;;16.80;99.90;;;;;;7371856;19;108927;-92
2022/11/01 10:17:37;;;;;;;;;;;16.80;99.90;;;;;;7373302;19;109411;-93
2022/11/01 10:20:06;;;;;;;;;;;16.90;99.90;;;;;;7380384;19;108147;-92
2022/11/01 10:22:35;;;;;;;;;;;17.00;99.90;;;;;;7372218;19;109033;-91
2022/11/01 10:25:05;;;;;;;;;;;17.00;99.90;;;;;;7371608;19;108491;-90
2022/11/01 10:27:43;;;;;;;;;;;17.10;99.90;;;;;;7371819;19;110522;-92
2022/11/01 10:30:15;;;;;;;;;;;17.10;99.90;;;;;;7370191;19;109383;-91
2022/11/01 10:32:46;;;;;;;;;;;17.20;99.90;;;;;;7368679;19;108361;-91
2022/11/01 10:35:19;;;;;;;;;;;17.30;99.90;;;;;;7373588;19;109254;-92
2022/11/01 10:38:02;;;;;;;;;;;17.40;99.90;;;;;;7370759;19;110744;-90
2022/11/01 10:40:51;;;;;;;;;;;17.40;99.90;;;;;;7369512;19;108405;-91
2022/11/01 10:43:20;;;;;;;;;;;17.50;99.90;;;;;;7375336;19;109508;-89
2022/11/01 10:45:48;;;;;;;;;;;17.50;99.90;;;;;;7371241;19;108252;-89
2022/11/01 10:48:26;;;;;;;;;;;17.60;99.90;;;;;;7369030;19;110484;-89
2022/11/01 10:50:53;;;;;;;;;;;17.70;99.90;;;;;;7369387;19;109271;-89
2022/11/01 10:53:21;;;;;;;;;;;17.70;99.90;;;;;;7370468;19;108556;-89
2022/11/01 10:55:50;;;;;;;;;;;17.70;99.90;;;;;;7371746;19;108320;-89
2022/11/01 10:58:23;;;;;;;;;;;17.80;99.90;;;;;;7370213;19;112790;-89
2022/11/01 11:00:50;;;;;;;;;;;17.90;99.90;;;;;;7370779;19;109008;-88
2022/11/01 11:03:20;;;;;;;;;;;17.90;99.90;;;;;;7370390;19;108801;-90
2022/11/01 11:05:47;;;;;;;;;;;18.00;99.90;;;;;;7376057;19;109347;-90
2022/11/01 11:08:15;;;;;;;;;;;18.10;99.90;;;;;;7374568;19;109281;-92
2022/11/01 11:10:43;;;;;;;;;;;18.20;99.90;;;;;;7375334;19;113190;-91
2022/11/01 11:13:12;;;;;;;;;;;18.20;99.90;;;;;;7378406;19;108696;-88
2022/11/01 11:15:44;;;;;;;;;;;18.40;99.90;;;;;;7374185;19;108437;-89
2022/11/01 11:18:38;;;;;;;;;;;18.30;99.90;;;;;;7378240;19;109186;-91
2022/11/01 11:21:07;;;;;;;;;;;18.40;99.90;;;;;;7375576;19;108224;-93
2022/11/01 11:23:39;;;;;;;;;;;18.40;99.90;;;;;;7375565;19;110354;-90
2022/11/01 11:26:07;;;;;;;;;;;18.40;99.90;;;;;;7375114;19;109665;-92
2022/11/01 11:28:41;;;;;;;;;;;18.50;99.90;;;;;;7380798;19;108421;-92
2022/11/01 11:31:19;;;;;;;;;;;18.60;99.90;;;;;;7372678;19;111784;-91
2022/11/01 11:33:50;;;;;;;;;;;18.70;99.90;;;;;;7375581;19;108270;-91
2022/11/01 11:36:23;;;;;;;;;;;18.80;99.90;;;;;;7375219;19;108752;-92
2022/11/01 11:38:50;;;;;;;;;;;18.90;99.90;;;;;;7377546;19;110284;-93
2022/11/01 11:41:27;;;;;;;;;;;18.90;99.90;;;;;;7376514;19;111522;-92
2022/11/01 11:43:54;;;;;;;;;;;19.00;99.90;;;;;;7376709;19;111376;-93
2022/11/01 11:46:24;;;;;;;;;;;19.00;99.90;;;;;;7377523;19;109099;-90
2022/11/01 11:48:58;;;;;;;;;;;19.10;99.90;;;;;;7382330;19;107647;-93
2022/11/01 11:51:26;;;;;;;;;;;19.10;99.90;;;;;;7379208;19;109086;-91
2022/11/01 11:54:08;;;;;;;;;;;19.20;99.90;;;;;;7376995;19;107928;-88
2022/11/01 11:56:34;;;;;;;;;;;19.20;99.90;;;;;;7374702;19;107978;-95
2022/11/01 11:59:05;;;;;;;;;;;19.40;99.90;;;;;;7378171;19;108504;-92
2022/11/01 12:01:34;;;;;;;;;;;19.40;99.90;;;;;;7375312;19;108246;-91
2022/11/01 12:04:08;;;;;;;;;;;19.30;99.90;;;;;;7375854;19;108115;-91
2022/11/01 12:06:45;;;;;;;;;;;19.40;99.90;;;;;;7373832;19;109061;-91
2022/11/01 12:09:31;;;;;;;;;;;19.50;99.90;;;;;;7377766;19;108058;-92
2022/11/01 12:12:04;;;;;;;;;;;19.50;99.90;;;;;;7378909;19;111406;-91
2022/11/01 12:14:33;;;;;;;;;;;19.60;99.90;;;;;;7376509;19;108158;-91
2022/11/01 12:17:00;;;;;;;;;;;19.60;99.90;;;;;;7374826;19;109990;-88
2022/11/01 12:19:30;;;;;;;;;;;19.70;99.90;;;;;;7358513;19;109258;-89
2022/11/01 12:21:59;;;;;;;;;;;19.70;99.90;;;;;;7347287;19;108501;-90
2022/11/01 12:24:34;;;;;;;;;;;19.70;99.90;;;;;;7344581;19;109461;-88
2022/11/01 12:27:03;;;;;;;;;;;19.80;99.90;;;;;;7342054;19;109944;-89
2022/11/01 12:29:49;;;;;;;;;;;19.90;99.90;;;;;;7344398;19;108691;-90
2022/11/01 12:32:19;;;;;;;;;;;19.90;99.90;;;;;;7345120;19;109673;-90
2022/11/01 12:34:47;;;;;;;;;;;20.00;99.90;;;;;;7350427;19;110219;-87
2022/11/01 12:37:19;;;;;;;;;;;20.10;99.90;;;;;;7342582;19;109827;-90
2022/11/01 12:40:05;;;;;;;;;;;20.10;99.90;;;;;;7342809;19;114065;-88
2022/11/01 13:04:25;;;;;;;;;;;20.10;99.90;;;;;;7340631;19;108605;-89
2022/11/01 13:07:03;;;;;;;;;;;20.10;99.90;;;;;;7340424;19;110124;-90
2022/11/01 13:09:35;;;;;;;;;;;20.20;99.90;;;;;;7339095;19;110901;-90
2022/11/01 13:12:21;;;;;;;;;;;20.30;99.90;;;;;;7341978;19;111949;-88
2022/11/01 13:14:51;;;;;;;;;;;20.20;99.90;;;;;;7342075;19;109314;-91
2022/11/01 13:17:22;;;;;;;;;;;20.10;99.90;;;;;;7340245;19;113085;-90
2022/11/01 13:20:08;;;;;;;;;;;20.10;99.90;;;;;;7340996;19;108476;-89
2022/11/01 13:22:38;;;;;;;;;;;20.20;99.90;;;;;;7345900;19;108888;-89
2022/11/01 13:25:14;;;;;;;;;;;20.20;99.90;;;;;;7342581;19;108291;-89
2022/11/01 13:28:01;;;;;;;;;;;20.20;99.90;;;;;;7340401;19;109627;-90
2022/11/01 13:30:29;;;;;;;;;;;20.30;99.90;;;;;;7338750;19;110358;-90
2022/11/01 13:33:11;;;;;;;;;;;20.40;99.90;;;;;;7343607;19;108767;-89
2022/11/01 13:35:59;;;;;;;;;;;20.50;99.90;;;;;;7340476;19;109219;-90
2022/11/01 13:38:33;;;;;;;;;;;20.50;99.90;;;;;;7342271;19;110822;-89
2022/11/01 13:41:01;;;;;;;;;;;20.50;99.90;;;;;;7343234;19;108285;-88
2022/11/01 13:43:27;;;;;;;;;;;20.50;99.90;;;;;;7342182;19;108554;-88
2022/11/01 13:45:54;;;;;;;;;;;20.50;99.90;;;;;;7346297;19;110354;-88
2022/11/01 13:48:24;;;;;;;;;;;20.50;99.90;;;;;;7340357;19;108740;-89
2022/11/01 13:50:56;;;;;;;;;;;20.60;99.90;;;;;;7342452;19;110208;-88
2022/11/01 13:53:42;;;;;;;;;;;20.70;99.90;;;;;;7341775;19;108447;-89
2022/11/01 13:56:16;;;;;;;;;;;20.70;99.90;;;;;;7341150;19;109815;-90
2022/11/01 13:58:44;;;;;;;;;;;20.70;99.90;;;;;;7340396;19;110333;-90
2022/11/01 14:01:29;;;;;;;;;;;20.80;99.90;;;;;;7343273;19;108381;-89
2022/11/01 14:04:15;;;;;;;;;;;20.80;99.90;;;;;;7340757;19;110403;-90
2022/11/01 14:06:47;;;;;;;;;;;20.80;99.90;;;;;;7339049;19;110092;-90
2022/11/01 14:09:24;;;;;;;;;;;20.90;99.90;;;;;;7345211;19;108453;-90
2022/11/01 14:11:54;;;;;;;;;;;20.90;99.90;;;;;;7341355;19;112209;-90
2022/11/01 14:14:30;;;;;;;;;;;21.00;99.90;;;;;;7339565;19;108511;-90
2022/11/01 14:17:27;;;;;;;;;;;21.00;99.30;;;;;;7340142;19;111850;-90
2022/11/01 14:20:05;;;;;;;;;;;20.90;99.90;;;;;;7336656;19;109506;-89
2022/11/01 14:22:32;;;;;;;;;;;20.90;99.40;;;;;;7336883;19;108770;-90
2022/11/01 14:25:00;;;;;;;;;;;20.90;99.90;;;;;;7339013;19;109475;-90
2022/11/01 14:27:27;;;;;;;;;;;20.90;99.90;;;;;;7337569;19;112791;-91
2022/11/01 14:29:55;;;;;;;;;;;20.80;99.60;;;;;;7343118;19;109034;-90
2022/11/01 14:32:24;;;;;;;;;;;20.80;99.90;;;;;;7331522;19;113691;-91
2022/11/01 14:35:14;;;;;;;;;;;20.90;99.80;;;;;;7336258;19;108553;-91
2022/11/01 14:37:43;;;;;;;;;;;20.90;99.60;;;;;;7336240;19;109409;-90
2022/11/01 14:40:12;;;;;;;;;;;20.90;99.60;;;;;;7336760;19;109569;-90
2022/11/01 14:42:41;;;;;;;;;;;20.80;99.90;;;;;;7340425;19;108616;-89
2022/11/01 14:45:22;;;;;;;;;;;20.80;99.90;;;;;;7344166;19;109252;-90
2022/11/01 14:47:50;;;;;;;;;;;20.80;99.90;;;;;;7344194;19;112931;-90
2022/11/01 14:50:26;;;;;;;;;;;20.80;99.90;;;;;;7345304;19;108455;-90
2022/11/01 14:53:13;;;;;;;;;;;20.80;99.90;;;;;;7349615;19;109791;-90